createdAt,value
2023-05-18T00:00:07.772Z,2.80
2023-05-18T00:02:35.473Z,2.13
2023-05-18T00:05:03.191Z,2.50
2023-05-18T00:07:30.765Z,3.37
2023-05-18T00:09:58.489Z,1.67
2023-05-18T00:12:26.074Z,2.73
2023-05-18T00:14:53.689Z,2.53
2023-05-18T00:17:21.277Z,2.50
2023-05-18T00:19:48.905Z,2.33
2023-05-18T00:22:16.814Z,2.73
2023-05-18T00:24:44.674Z,2.80
2023-05-18T00:27:12.387Z,2.90
2023-05-18T00:29:40.077Z,2.87
2023-05-18T00:32:07.872Z,2.70
2023-05-18T00:34:35.553Z,2.63
2023-05-18T00:37:03.160Z,2.57
2023-05-18T00:39:32.461Z,3.43
2023-05-18T00:42:00.024Z,3.57
2023-05-18T00:44:27.703Z,2.93
2023-05-18T00:46:55.269Z,3.03
2023-05-18T00:49:22.908Z,3.00
2023-05-18T00:51:50.531Z,3.10
2023-05-18T00:54:18.151Z,3.40
2023-05-18T00:56:45.745Z,3.30
2023-05-18T00:59:13.375Z,3.00
2023-05-18T01:01:40.955Z,3.70
2023-05-18T01:04:08.608Z,3.47
2023-05-18T01:06:36.674Z,3.23
2023-05-18T01:09:05.127Z,3.33
2023-05-18T01:11:32.750Z,3.40
2023-05-18T01:14:31.000Z,3.47
2023-05-18T01:17:06.390Z,3.20
2023-05-18T01:19:37.102Z,3.40
2023-05-18T01:22:14.140Z,3.20
2023-05-18T01:24:48.674Z,3.60
2023-05-18T01:27:17.978Z,3.00
2023-05-18T01:29:46.653Z,4.27
2023-05-18T01:32:20.396Z,3.43
2023-05-18T01:34:48.268Z,3.60
2023-05-18T01:37:15.824Z,2.63
2023-05-18T01:39:43.824Z,3.30
2023-05-18T01:42:20.116Z,4.07
2023-05-18T01:45:00.488Z,3.70
2023-05-18T01:47:29.345Z,3.10
2023-05-18T01:50:09.288Z,3.40
2023-05-18T01:52:38.553Z,3.93
2023-05-18T01:55:07.115Z,3.60
2023-05-18T01:57:35.887Z,4.03
2023-05-18T02:00:04.016Z,3.70
2023-05-18T02:02:31.906Z,2.93
2023-05-18T02:04:59.495Z,3.80
2023-05-18T02:07:27.195Z,3.90
2023-05-18T02:09:54.759Z,4.07
2023-05-18T02:12:22.337Z,4.73
2023-05-18T02:14:49.888Z,3.20
2023-05-18T02:17:17.488Z,3.87
2023-05-18T02:19:45.071Z,3.57
2023-05-18T02:22:12.751Z,3.73
2023-05-18T02:24:40.315Z,3.83
2023-05-18T02:27:07.947Z,3.63
2023-05-18T02:29:35.477Z,4.70
2023-05-18T02:32:03.153Z,3.77
2023-05-18T02:34:30.725Z,3.40
2023-05-18T02:36:58.336Z,4.13
2023-05-18T02:39:25.864Z,3.87
2023-05-18T02:41:53.463Z,3.23
2023-05-18T02:44:21.028Z,4.47
2023-05-18T02:46:48.690Z,4.60
2023-05-18T02:49:16.277Z,4.43
2023-05-18T02:51:43.964Z,3.13
2023-05-18T02:54:11.509Z,4.30
2023-05-18T02:56:39.129Z,4.47
2023-05-18T02:59:08.678Z,4.30
2023-05-18T03:01:36.557Z,4.90
2023-05-18T03:04:04.279Z,4.67
2023-05-18T03:06:31.913Z,5.17
2023-05-18T03:08:59.461Z,3.53
2023-05-18T03:11:27.082Z,4.90
2023-05-18T03:13:54.623Z,5.80
2023-05-18T03:16:22.233Z,4.87
2023-05-18T03:18:52.876Z,5.40
2023-05-18T03:21:20.539Z,5.33
2023-05-18T03:23:48.357Z,4.87
2023-05-18T03:26:15.995Z,4.63
2023-05-18T03:28:43.510Z,4.93
2023-05-18T03:31:11.198Z,4.97
2023-05-18T03:33:38.845Z,3.37
2023-05-18T03:36:06.576Z,5.50
2023-05-18T03:38:34.098Z,4.80
2023-05-18T03:41:01.726Z,6.00
2023-05-18T03:43:29.351Z,6.43
2023-05-18T03:45:57.023Z,4.57
2023-05-18T03:48:25.526Z,5.30
2023-05-18T03:50:53.160Z,6.07
2023-05-18T03:53:20.691Z,5.30
2023-05-18T03:55:48.899Z,4.90
2023-05-18T03:58:17.017Z,5.60
2023-05-18T04:00:44.604Z,6.17
2023-05-18T04:03:12.321Z,4.47
2023-05-18T04:05:40.086Z,5.40
2023-05-18T04:08:07.603Z,5.80
2023-05-18T04:10:35.270Z,5.37
2023-05-18T04:13:02.807Z,4.20
2023-05-18T04:15:30.578Z,6.17
2023-05-18T04:17:58.360Z,5.27
2023-05-18T04:20:26.064Z,4.37
2023-05-18T04:22:53.594Z,3.83
2023-05-18T04:25:21.199Z,5.67
2023-05-18T04:27:51.141Z,4.50
2023-05-18T04:30:19.236Z,4.63
2023-05-18T04:32:46.825Z,4.40
2023-05-18T04:35:17.311Z,5.73
2023-05-18T04:37:45.081Z,4.63
2023-05-18T04:40:12.886Z,5.47
2023-05-18T04:42:41.219Z,4.73
2023-05-18T04:45:08.999Z,4.80
2023-05-18T04:47:36.661Z,4.83
2023-05-18T04:50:04.333Z,4.80
2023-05-18T04:52:31.978Z,4.57
2023-05-18T04:55:02.499Z,4.80
2023-05-18T04:57:30.171Z,4.63
2023-05-18T04:59:57.721Z,4.33
2023-05-18T05:02:25.477Z,4.60
2023-05-18T05:04:53.073Z,5.93
2023-05-18T05:07:20.722Z,5.20
2023-05-18T05:09:48.289Z,4.73
2023-05-18T05:12:15.929Z,5.83
2023-05-18T05:14:43.446Z,4.57
2023-05-18T05:17:11.115Z,5.50
2023-05-18T05:19:38.700Z,3.80
2023-05-18T05:22:06.298Z,4.37
2023-05-18T05:24:33.871Z,3.87
2023-05-18T05:27:01.402Z,4.47
2023-05-18T05:29:28.940Z,4.70
2023-05-18T05:31:56.626Z,4.47
2023-05-18T05:34:24.250Z,4.30
2023-05-18T05:36:51.848Z,4.70
2023-05-18T05:39:19.384Z,3.43
2023-05-18T05:41:47.173Z,3.07
2023-05-18T05:44:14.681Z,3.87
2023-05-18T05:46:42.361Z,4.30
2023-05-18T05:49:09.908Z,4.77
2023-05-18T05:51:37.501Z,4.10
2023-05-18T05:54:05.194Z,4.90
2023-05-18T05:56:32.889Z,4.23
2023-05-18T05:59:00.422Z,4.90
2023-05-18T06:01:28.034Z,3.43
2023-05-18T06:03:55.726Z,3.67
2023-05-18T06:06:23.400Z,4.03
2023-05-18T06:08:50.969Z,4.43
2023-05-18T06:11:18.805Z,4.90
2023-05-18T06:13:46.354Z,5.07
2023-05-18T06:16:14.041Z,4.10
2023-05-18T06:18:41.626Z,4.10
2023-05-18T06:21:09.238Z,3.93
2023-05-18T06:23:37.812Z,4.47
2023-05-18T06:26:06.609Z,3.93
2023-05-18T06:28:34.172Z,4.27
2023-05-18T06:31:01.828Z,4.90
2023-05-18T06:33:29.425Z,3.80
2023-05-18T06:35:57.117Z,4.70
2023-05-18T06:38:24.692Z,4.53
2023-05-18T06:40:52.377Z,3.47
2023-05-18T06:43:19.906Z,4.70
2023-05-18T06:45:47.637Z,4.43
2023-05-18T06:48:15.209Z,4.13
2023-05-18T06:50:42.745Z,4.50
2023-05-18T06:53:10.474Z,3.30
2023-05-18T06:55:38.120Z,3.67
2023-05-18T06:58:05.634Z,3.90
2023-05-18T07:00:33.301Z,3.97
2023-05-18T07:03:00.982Z,4.27
2023-05-18T07:05:28.804Z,4.40
2023-05-18T07:07:56.511Z,2.87
2023-05-18T07:10:24.280Z,4.10
2023-05-18T07:12:51.823Z,3.80
2023-05-18T07:15:19.446Z,4.10
2023-05-18T07:17:47.063Z,3.27
2023-05-18T07:20:14.674Z,3.57
2023-05-18T07:22:42.257Z,2.90
2023-05-18T07:25:10.090Z,4.20
2023-05-18T07:27:37.612Z,4.50
2023-05-18T07:30:05.427Z,3.73
2023-05-18T07:32:33.053Z,4.03
2023-05-18T07:35:00.667Z,4.13
2023-05-18T07:37:28.176Z,3.27
2023-05-18T07:39:55.807Z,3.70
2023-05-18T07:42:23.349Z,3.70
2023-05-18T07:44:51.019Z,3.80
2023-05-18T07:47:18.605Z,4.00
2023-05-18T07:49:46.264Z,4.20
2023-05-18T07:52:13.806Z,4.40
2023-05-18T07:54:41.569Z,3.37
2023-05-18T07:57:09.294Z,2.97
2023-05-18T07:59:36.968Z,4.13
2023-05-18T08:02:04.669Z,2.43
2023-05-18T08:04:32.466Z,2.70
2023-05-18T08:07:00.202Z,3.03
2023-05-18T08:09:28.069Z,3.97
2023-05-18T08:11:55.857Z,3.17
2023-05-18T08:14:23.476Z,2.97
2023-05-18T08:16:51.123Z,3.60
2023-05-18T08:19:18.861Z,2.83
2023-05-18T08:21:46.528Z,2.80
2023-05-18T08:24:14.149Z,2.93
2023-05-18T08:26:41.682Z,3.80
2023-05-18T08:29:09.321Z,3.70
2023-05-18T08:31:37.802Z,4.03
2023-05-18T08:34:05.763Z,3.87
2023-05-18T08:36:34.425Z,2.50
2023-05-18T08:39:02.480Z,2.47
2023-05-18T08:41:31.091Z,3.30
2023-05-18T08:44:02.764Z,3.67
2023-05-18T08:46:34.355Z,3.37
2023-05-18T08:49:02.727Z,3.77
2023-05-18T08:51:34.293Z,3.47
2023-05-18T08:54:02.090Z,3.60
2023-05-18T08:56:31.470Z,3.53
2023-05-18T08:58:59.527Z,3.03
2023-05-18T09:01:27.671Z,4.67
2023-05-18T09:03:56.835Z,4.40
2023-05-18T09:06:24.941Z,3.07
2023-05-18T09:08:56.268Z,5.13
2023-05-18T09:11:25.376Z,4.00
2023-05-18T09:13:53.024Z,3.67
2023-05-18T09:16:20.752Z,4.67
2023-05-18T09:18:48.399Z,3.37
2023-05-18T09:21:16.147Z,3.60
2023-05-18T09:23:44.506Z,3.80
2023-05-18T09:26:12.251Z,3.67
2023-05-18T09:28:40.960Z,3.27
2023-05-18T09:31:09.573Z,3.40
2023-05-18T09:33:38.232Z,4.90
2023-05-18T09:36:06.639Z,4.70
2023-05-18T09:38:38.310Z,4.13
2023-05-18T09:41:10.257Z,3.60
2023-05-18T09:43:37.892Z,4.07
2023-05-18T09:46:08.938Z,3.30
2023-05-18T09:48:37.040Z,3.73
2023-05-18T09:51:08.019Z,4.07
2023-05-18T09:53:36.266Z,2.83
2023-05-18T09:56:07.634Z,4.10
2023-05-18T09:58:35.259Z,3.23
2023-05-18T10:01:03.203Z,4.50
2023-05-18T10:03:38.110Z,3.63
2023-05-18T10:06:09.881Z,3.00
2023-05-18T10:08:38.172Z,3.53
2023-05-18T10:11:06.012Z,3.70
2023-05-18T10:13:34.685Z,3.70
2023-05-18T10:16:03.792Z,3.20
2023-05-18T10:18:32.272Z,3.37
2023-05-18T10:21:00.624Z,4.30
2023-05-18T10:23:31.183Z,3.83
2023-05-18T10:25:59.406Z,3.97
2023-05-18T10:28:28.227Z,2.97
2023-05-18T10:30:56.952Z,3.90
2023-05-18T10:33:29.410Z,2.90
2023-05-18T10:35:58.047Z,2.83
2023-05-18T10:38:26.572Z,3.20
2023-05-18T10:40:55.751Z,4.13
2023-05-18T10:43:24.406Z,4.20
2023-05-18T10:45:55.816Z,4.33
2023-05-18T10:48:24.077Z,4.00
2023-05-18T10:50:52.722Z,3.63
2023-05-18T10:53:21.816Z,3.00
2023-05-18T10:55:50.037Z,3.70
2023-05-18T10:58:19.184Z,4.13
2023-05-18T11:00:54.706Z,3.57
2023-05-18T11:03:22.499Z,4.30
2023-05-18T11:06:09.928Z,2.87
2023-05-18T11:08:44.832Z,3.13
2023-05-18T11:11:12.440Z,3.83
2023-05-18T11:13:44.267Z,3.30
2023-05-18T11:16:11.961Z,3.37
2023-05-18T11:18:41.735Z,4.10
2023-05-18T11:21:38.734Z,2.90
2023-05-18T11:24:19.053Z,2.97
2023-05-18T11:26:51.045Z,4.20
2023-05-18T11:29:18.708Z,3.27
2023-05-18T11:31:50.824Z,3.77
2023-05-18T11:34:39.438Z,3.53
2023-05-18T11:37:08.072Z,4.90
2023-05-18T11:39:37.665Z,4.30
2023-05-18T11:42:10.854Z,5.07
2023-05-18T11:44:38.645Z,4.93
2023-05-18T11:47:08.748Z,3.60
2023-05-18T11:49:49.713Z,4.13
2023-05-18T11:52:24.468Z,5.43
2023-05-18T11:54:56.440Z,3.67
2023-05-18T11:57:26.869Z,5.27
2023-05-18T11:59:55.816Z,5.27
2023-05-18T12:02:27.788Z,4.40
2023-05-18T12:04:56.046Z,4.67
2023-05-18T12:07:24.280Z,4.33
2023-05-18T12:09:51.896Z,4.33
2023-05-18T12:12:19.688Z,4.33
2023-05-18T12:14:53.363Z,3.73
2023-05-18T12:17:21.020Z,3.60
2023-05-18T12:19:49.586Z,4.00
2023-05-18T12:22:17.410Z,4.43
2023-05-18T12:24:45.389Z,3.40
2023-05-18T12:27:13.587Z,4.37
2023-05-18T12:29:42.062Z,4.40
2023-05-18T12:32:10.570Z,3.90
2023-05-18T12:34:38.745Z,3.57
2023-05-18T12:37:07.093Z,3.73
2023-05-18T12:39:34.629Z,3.60
2023-05-18T12:42:15.461Z,4.10
2023-05-18T12:44:43.946Z,4.40
2023-05-18T12:47:15.097Z,4.00
2023-05-18T12:49:44.009Z,4.00
2023-05-18T12:52:12.307Z,4.20
2023-05-18T12:54:49.722Z,4.80
2023-05-18T12:57:17.372Z,3.50
2023-05-18T12:59:50.900Z,3.50
2023-05-18T13:02:27.982Z,2.90
2023-05-18T13:05:02.288Z,3.70
2023-05-18T13:07:30.216Z,3.60
2023-05-18T13:10:10.818Z,4.00
2023-05-18T13:12:42.936Z,4.60
2023-05-18T13:15:20.637Z,3.20
2023-05-18T13:17:49.157Z,3.67
2023-05-18T13:20:17.418Z,3.63
2023-05-18T13:22:45.405Z,3.37
2023-05-18T13:25:12.979Z,4.23
2023-05-18T13:27:40.646Z,3.70
2023-05-18T13:30:08.600Z,4.70
2023-05-18T13:32:36.314Z,5.03
2023-05-18T13:35:03.983Z,4.53
2023-05-18T13:37:31.667Z,3.60
2023-05-18T13:39:59.206Z,4.23
2023-05-18T13:42:26.831Z,3.80
2023-05-18T13:44:54.390Z,3.17
2023-05-18T13:47:21.989Z,3.43
2023-05-18T13:49:49.514Z,4.13
2023-05-18T13:52:17.229Z,3.97
2023-05-18T13:54:44.728Z,3.83
2023-05-18T13:57:12.491Z,3.20
2023-05-18T13:59:40.026Z,3.93
2023-05-18T14:02:07.957Z,3.40
2023-05-18T14:04:35.530Z,4.77
2023-05-18T14:07:03.321Z,3.33
2023-05-18T14:09:30.845Z,3.80
2023-05-18T14:11:58.454Z,4.00
2023-05-18T14:14:25.986Z,3.73
2023-05-18T14:16:54.402Z,3.73
2023-05-18T14:19:22.173Z,3.40
2023-05-18T14:21:49.848Z,4.10
2023-05-18T14:24:17.372Z,4.17
2023-05-18T14:26:45.060Z,4.93
2023-05-18T14:29:12.612Z,3.63
2023-05-18T14:31:40.284Z,3.63
2023-05-18T14:34:07.882Z,5.23
2023-05-18T14:36:37.214Z,11.80
2023-05-18T14:39:04.824Z,7.30
2023-05-18T14:41:32.427Z,5.93
2023-05-18T14:43:59.967Z,5.07
2023-05-18T14:46:27.596Z,4.27
2023-05-18T14:48:55.217Z,3.90
2023-05-18T14:51:23.372Z,3.23
2023-05-18T14:53:51.022Z,3.13
2023-05-18T14:56:18.957Z,11.40
2023-05-18T14:58:46.582Z,9.10
2023-05-18T15:01:14.316Z,11.63
2023-05-18T15:03:42.149Z,12.17
2023-05-18T15:06:10.309Z,17.37
2023-05-18T15:08:37.953Z,21.57
2023-05-18T15:11:05.650Z,4.40
2023-05-18T15:13:33.358Z,3.13
2023-05-18T15:16:01.188Z,4.43
2023-05-18T15:18:28.798Z,3.57
2023-05-18T15:20:56.452Z,3.07
2023-05-18T15:23:24.104Z,3.43
2023-05-18T15:25:51.804Z,3.70
2023-05-18T15:28:19.546Z,3.70
2023-05-18T15:30:48.026Z,3.03
2023-05-18T15:33:15.632Z,2.80
2023-05-18T15:35:43.269Z,2.90
2023-05-18T15:38:11.952Z,3.47
2023-05-18T15:40:39.567Z,3.00
2023-05-18T15:43:07.149Z,2.60
2023-05-18T15:45:34.810Z,3.17
2023-05-18T15:48:02.447Z,3.30
2023-05-18T15:50:30.471Z,3.23
2023-05-18T15:52:58.231Z,2.93
2023-05-18T15:55:25.875Z,2.60
2023-05-18T15:57:53.371Z,5.13
2023-05-18T16:00:21.082Z,4.03
2023-05-18T16:02:48.829Z,3.73
2023-05-18T16:05:16.528Z,2.80
2023-05-18T16:07:44.151Z,2.70
2023-05-18T16:10:11.886Z,3.60
2023-05-18T16:12:39.515Z,3.67
2023-05-18T16:15:07.394Z,4.17
2023-05-18T16:17:35.242Z,3.50
2023-05-18T16:20:04.049Z,4.10
2023-05-18T16:22:31.797Z,2.43
2023-05-18T16:25:02.321Z,3.67
2023-05-18T16:27:30.080Z,3.27
2023-05-18T16:30:00.709Z,3.97
2023-05-18T16:32:28.671Z,3.40
2023-05-18T16:34:56.489Z,3.10
2023-05-18T16:37:24.182Z,4.77
2023-05-18T16:39:51.747Z,4.07
2023-05-18T16:42:19.531Z,3.17
2023-05-18T16:44:47.266Z,2.30
2023-05-18T16:47:14.909Z,3.27
2023-05-18T16:49:42.465Z,3.17
2023-05-18T16:52:10.067Z,3.63
2023-05-18T16:54:37.731Z,3.27
2023-05-18T16:57:05.441Z,2.00
2023-05-18T16:59:33.042Z,2.73
2023-05-18T17:02:00.862Z,3.40
2023-05-18T17:04:28.540Z,3.73
2023-05-18T17:06:56.200Z,2.73
2023-05-18T17:09:23.904Z,2.57
2023-05-18T17:11:51.614Z,1.80
2023-05-18T17:14:19.179Z,2.10
2023-05-18T17:16:47.158Z,2.87
2023-05-18T17:19:14.717Z,2.40
2023-05-18T17:21:42.361Z,2.50
2023-05-18T17:24:09.903Z,2.43
2023-05-18T17:26:37.597Z,2.83
2023-05-18T17:29:05.249Z,3.00
2023-05-18T17:31:32.944Z,2.93
2023-05-18T17:34:00.508Z,2.73
2023-05-18T17:36:28.097Z,3.00
2023-05-18T17:38:55.698Z,3.17
2023-05-18T17:41:23.370Z,2.00
2023-05-18T17:43:50.923Z,3.00
2023-05-18T17:46:18.750Z,2.87
2023-05-18T17:48:46.350Z,2.60
2023-05-18T17:51:13.956Z,2.87
2023-05-18T17:53:41.506Z,2.73
2023-05-18T17:56:10.122Z,2.43
2023-05-18T17:58:37.721Z,2.53
2023-05-18T18:01:08.836Z,2.50
2023-05-18T18:03:36.858Z,3.07
2023-05-18T18:06:04.589Z,2.77
2023-05-18T18:08:32.248Z,2.37
2023-05-18T18:10:59.808Z,2.77
2023-05-18T18:13:27.444Z,3.13
2023-05-18T18:15:55.110Z,2.83
2023-05-18T18:18:22.942Z,2.23
2023-05-18T18:20:50.496Z,2.73
2023-05-18T18:23:18.149Z,2.47
2023-05-18T18:25:45.698Z,2.73
2023-05-18T18:28:13.257Z,2.27
2023-05-18T18:30:42.004Z,3.23
2023-05-18T18:33:09.638Z,2.57
2023-05-18T18:35:37.618Z,2.57
2023-05-18T18:38:05.285Z,2.30
2023-05-18T18:40:33.453Z,2.70
2023-05-18T18:43:01.531Z,3.17
2023-05-18T18:45:29.556Z,3.03
2023-05-18T18:47:57.245Z,2.43
2023-05-18T18:50:25.162Z,2.33
2023-05-18T18:52:55.615Z,3.43
2023-05-18T18:55:23.438Z,2.33
2023-05-18T18:57:51.178Z,2.83
2023-05-18T19:00:18.963Z,2.83
2023-05-18T19:02:46.637Z,2.77
2023-05-18T19:05:14.392Z,2.30
2023-05-18T19:07:42.012Z,2.60
2023-05-18T19:10:09.888Z,2.20
2023-05-18T19:12:37.453Z,2.70
2023-05-18T19:15:05.226Z,2.70
2023-05-18T19:17:32.836Z,2.27
2023-05-18T19:20:00.486Z,2.33
2023-05-18T19:22:28.083Z,2.90
2023-05-18T19:24:55.689Z,2.57
2023-05-18T19:27:23.273Z,3.23
2023-05-18T19:29:50.972Z,3.07
2023-05-18T19:32:18.524Z,2.77
2023-05-18T19:34:46.136Z,3.03
2023-05-18T19:37:13.731Z,2.77
2023-05-18T19:39:41.336Z,2.50
2023-05-18T19:42:08.894Z,2.93
2023-05-18T19:44:36.524Z,3.10
2023-05-18T19:47:04.174Z,2.63
2023-05-18T19:49:31.797Z,2.93
2023-05-18T19:51:59.363Z,3.67
2023-05-18T19:54:27.029Z,2.60
2023-05-18T19:56:54.632Z,2.50
2023-05-18T19:59:22.438Z,3.00
2023-05-18T20:01:50.294Z,3.17
2023-05-18T20:04:17.996Z,2.33
2023-05-18T20:06:45.576Z,3.50
2023-05-18T20:09:13.155Z,2.60
2023-05-18T20:11:40.712Z,3.20
2023-05-18T20:14:08.400Z,2.90
2023-05-18T20:16:36.088Z,2.57
2023-05-18T20:19:03.785Z,2.53
2023-05-18T20:21:31.385Z,3.00
2023-05-18T20:23:59.356Z,3.40
2023-05-18T20:26:28.438Z,2.70
2023-05-18T20:28:56.849Z,2.37
2023-05-18T20:31:24.443Z,3.03
2023-05-18T20:33:52.065Z,2.77
2023-05-18T20:36:19.619Z,2.67
2023-05-18T20:38:47.229Z,2.20
2023-05-18T20:41:14.793Z,2.00
2023-05-18T20:43:42.398Z,2.83
2023-05-18T20:46:10.080Z,2.83
2023-05-18T20:48:37.729Z,2.93
2023-05-18T20:51:05.253Z,3.03
2023-05-18T20:53:32.874Z,2.97
2023-05-18T20:56:00.468Z,3.50
2023-05-18T20:58:28.078Z,2.97
2023-05-18T21:00:55.694Z,3.40
2023-05-18T21:03:23.410Z,3.43
2023-05-18T21:05:51.042Z,3.10
2023-05-18T21:08:18.648Z,4.17
2023-05-18T21:10:46.204Z,2.80
2023-05-18T21:13:13.843Z,3.83
2023-05-18T21:15:41.369Z,3.10
2023-05-18T21:18:09.178Z,3.13
2023-05-18T21:20:36.817Z,3.30
2023-05-18T21:23:04.568Z,3.17
2023-05-18T21:25:32.254Z,3.67
2023-05-18T21:27:59.987Z,3.40
2023-05-18T21:30:27.605Z,3.50
2023-05-18T21:32:55.304Z,3.20
2023-05-18T21:35:22.896Z,2.40
2023-05-18T21:37:50.576Z,3.63
2023-05-18T21:40:18.137Z,3.60
2023-05-18T21:42:45.772Z,2.53
2023-05-18T21:45:13.500Z,3.20
2023-05-18T21:47:41.104Z,3.17
2023-05-18T21:50:08.815Z,3.37
2023-05-18T21:52:36.527Z,2.90
2023-05-18T21:55:04.232Z,3.73
2023-05-18T21:57:33.107Z,3.27
2023-05-18T22:00:00.825Z,4.53
2023-05-18T22:02:28.513Z,4.47
2023-05-18T22:04:56.120Z,3.80
2023-05-18T22:07:23.759Z,3.80
2023-05-18T22:09:51.273Z,4.00
2023-05-18T22:12:19.353Z,3.13
2023-05-18T22:14:46.879Z,3.63
2023-05-18T22:17:14.559Z,3.77
2023-05-18T22:19:42.123Z,3.03
2023-05-18T22:22:13.958Z,3.20
2023-05-18T22:24:47.217Z,3.60
2023-05-18T22:27:15.015Z,3.93
2023-05-18T22:29:42.555Z,3.17
2023-05-18T22:32:10.168Z,3.70
2023-05-18T22:34:37.905Z,2.30
2023-05-18T22:37:05.694Z,5.00
2023-05-18T22:39:33.252Z,2.83
2023-05-18T22:42:00.822Z,3.70
2023-05-18T22:44:28.619Z,3.33
2023-05-18T22:46:56.214Z,2.87
2023-05-18T22:49:23.908Z,3.33
2023-05-18T22:51:51.419Z,3.30
2023-05-18T22:54:19.047Z,3.37
2023-05-18T22:56:46.572Z,3.77
2023-05-18T22:59:14.125Z,3.70
2023-05-18T23:01:41.733Z,3.70
2023-05-18T23:04:09.368Z,3.90
2023-05-18T23:06:36.966Z,3.33
2023-05-18T23:09:04.643Z,3.63
2023-05-18T23:11:32.203Z,3.63
2023-05-18T23:13:59.795Z,3.70
2023-05-18T23:16:27.370Z,3.43
2023-05-18T23:18:55.063Z,3.53
2023-05-18T23:21:22.636Z,3.13
2023-05-18T23:23:50.185Z,3.60
2023-05-18T23:26:17.741Z,3.20
2023-05-18T23:28:45.316Z,3.60
2023-05-18T23:31:12.832Z,3.53
2023-05-18T23:33:40.651Z,3.30
2023-05-18T23:36:08.821Z,3.77
2023-05-18T23:38:37.237Z,3.43
2023-05-18T23:41:05.086Z,3.70
2023-05-18T23:43:33.533Z,3.70
2023-05-18T23:46:02.517Z,3.63
2023-05-18T23:48:30.382Z,3.37
2023-05-18T23:51:00.115Z,3.90
2023-05-18T23:53:28.421Z,3.90
2023-05-18T23:55:57.770Z,3.43
2023-05-18T23:58:28.990Z,3.63
